CheckWX is a tool to help pilots better visualize weather data.  It is not intended as a substitute for an official pre-flight weather briefing.

06:45:00 UTC

DFOO METAR
Bobo Dioulasso Airport
Bobo Dioulasso, Burkina Faso
Current

45 mins ago

DFOO 210600Z 20005KT 9999 FEW020 24/20 Q1012
Observed
May-21 @ 06:00 UTC
Wind
  • 200° at 5 KTS
Visibility
10,000+ meters
Flight Rules
VFR
Cloud Levels
  • Few at 2,000' AGL
Temperature
24°C / 75°F
Dewpoint
20°C / 68°F
Humidity
78%
Altimeter
29.88" Hg
Pressure
1011.92 hPa
Previous

2 hours ago

DFOO 210500Z 15013KT 120V180 9999 TS FEW020 FEW033CB 24/20 Q1012
Observed
May-21 @ 05:00 UTC
Wind
  • 150° at 13 KTS
Visibility
10,000+ meters
Flight Rules
VFR
Conditions
Thunderstorm
Cloud Levels
  • Few at 2,000' AGL
  • Few at 3,300' AGL
Temperature
24°C / 75°F
Dewpoint
20°C / 68°F
Humidity
78%
Altimeter
29.88" Hg
Pressure
1011.92 hPa
Previous

3 hours ago

DFOO 210400Z 16008KT 130V190 9999 TS FEW020 FEW033CB 28/24 Q1012
Observed
May-21 @ 04:00 UTC
Wind
  • 160° at 8 KTS
Visibility
10,000+ meters
Flight Rules
VFR
Conditions
Thunderstorm
Cloud Levels
  • Few at 2,000' AGL
  • Few at 3,300' AGL
Temperature
28°C / 82°F
Dewpoint
24°C / 75°F
Heat Index
32°C / 89°F
Humidity
79%
Altimeter
29.88" Hg
Pressure
1011.92 hPa